sensor_id;sensor_type;location;lat;lon;timestamp;P1;durP1;ratioP1;P2;durP2;ratioP2
76204;SDS011;64986;55.672;37.628;2023-10-31T00:01:20;4.90;;;2.58;;
76204;SDS011;64986;55.672;37.628;2023-10-31T00:03:46;3.28;;;1.90;;
76204;SDS011;64986;55.672;37.628;2023-10-31T00:06:11;3.70;;;1.85;;
76204;SDS011;64986;55.672;37.628;2023-10-31T00:08:37;4.43;;;2.20;;
76204;SDS011;64986;55.672;37.628;2023-10-31T00:11:02;4.00;;;2.10;;
76204;SDS011;64986;55.672;37.628;2023-10-31T00:13:28;3.53;;;2.03;;
76204;SDS011;64986;55.672;37.628;2023-10-31T00:15:53;4.82;;;2.45;;
76204;SDS011;64986;55.672;37.628;2023-10-31T00:18:19;3.17;;;1.98;;
76204;SDS011;64986;55.672;37.628;2023-10-31T00:20:45;2.40;;;1.90;;
76204;SDS011;64986;55.672;37.628;2023-10-31T00:23:11;4.03;;;1.88;;
76204;SDS011;64986;55.672;37.628;2023-10-31T00:25:37;3.88;;;2.10;;
76204;SDS011;64986;55.672;37.628;2023-10-31T00:28:02;2.25;;;1.67;;
76204;SDS011;64986;55.672;37.628;2023-10-31T00:30:28;3.35;;;1.60;;
76204;SDS011;64986;55.672;37.628;2023-10-31T00:32:54;3.72;;;1.88;;
76204;SDS011;64986;55.672;37.628;2023-10-31T00:35:19;3.72;;;1.50;;
76204;SDS011;64986;55.672;37.628;2023-10-31T00:37:47;4.57;;;1.80;;
76204;SDS011;64986;55.672;37.628;2023-10-31T00:40:12;3.97;;;2.40;;
76204;SDS011;64986;55.672;37.628;2023-10-31T00:42:39;3.72;;;2.10;;
76204;SDS011;64986;55.672;37.628;2023-10-31T00:45:06;3.83;;;2.03;;
76204;SDS011;64986;55.672;37.628;2023-10-31T00:47:32;4.53;;;1.80;;
76204;SDS011;64986;55.672;37.628;2023-10-31T00:49:58;5.40;;;2.00;;
76204;SDS011;64986;55.672;37.628;2023-10-31T00:52:24;3.00;;;1.85;;
76204;SDS011;64986;55.672;37.628;2023-10-31T00:54:49;2.40;;;1.58;;
76204;SDS011;64986;55.672;37.628;2023-10-31T00:57:15;3.17;;;2.28;;
76204;SDS011;64986;55.672;37.628;2023-10-31T00:59:41;2.53;;;1.92;;
76204;SDS011;64986;55.672;37.628;2023-10-31T01:02:06;3.85;;;1.80;;
76204;SDS011;64986;55.672;37.628;2023-10-31T01:04:32;3.47;;;1.63;;
76204;SDS011;64986;55.672;37.628;2023-10-31T01:06:57;3.45;;;2.13;;
76204;SDS011;64986;55.672;37.628;2023-10-31T01:09:23;4.18;;;3.00;;
76204;SDS011;64986;55.672;37.628;2023-10-31T01:11:48;4.82;;;2.20;;
76204;SDS011;64986;55.672;37.628;2023-10-31T01:14:14;2.42;;;1.63;;
76204;SDS011;64986;55.672;37.628;2023-10-31T01:16:42;2.88;;;1.70;;
76204;SDS011;64986;55.672;37.628;2023-10-31T01:19:07;2.03;;;1.45;;
76204;SDS011;64986;55.672;37.628;2023-10-31T01:21:33;3.35;;;1.38;;
76204;SDS011;64986;55.672;37.628;2023-10-31T01:23:59;5.03;;;2.20;;
76204;SDS011;64986;55.672;37.628;2023-10-31T01:26:25;3.78;;;1.90;;
76204;SDS011;64986;55.672;37.628;2023-10-31T01:28:50;5.53;;;1.33;;
76204;SDS011;64986;55.672;37.628;2023-10-31T01:31:16;2.30;;;1.90;;
76204;SDS011;64986;55.672;37.628;2023-10-31T01:33:42;3.72;;;2.05;;
76204;SDS011;64986;55.672;37.628;2023-10-31T01:36:07;3.17;;;1.77;;
76204;SDS011;64986;55.672;37.628;2023-10-31T01:38:35;2.45;;;1.55;;
76204;SDS011;64986;55.672;37.628;2023-10-31T01:41:00;3.00;;;2.03;;
76204;SDS011;64986;55.672;37.628;2023-10-31T01:43:32;3.25;;;1.90;;
76204;SDS011;64986;55.672;37.628;2023-10-31T01:45:59;3.10;;;1.85;;
76204;SDS011;64986;55.672;37.628;2023-10-31T01:48:25;3.15;;;1.88;;
76204;SDS011;64986;55.672;37.628;2023-10-31T01:50:53;2.58;;;2.08;;
76204;SDS011;64986;55.672;37.628;2023-10-31T01:53:19;2.10;;;1.40;;
76204;SDS011;64986;55.672;37.628;2023-10-31T01:55:45;3.80;;;1.92;;
76204;SDS011;64986;55.672;37.628;2023-10-31T01:58:11;4.85;;;2.05;;
76204;SDS011;64986;55.672;37.628;2023-10-31T02:00:39;3.85;;;2.00;;
76204;SDS011;64986;55.672;37.628;2023-10-31T02:03:08;3.00;;;1.92;;
76204;SDS011;64986;55.672;37.628;2023-10-31T02:05:34;2.60;;;1.80;;
76204;SDS011;64986;55.672;37.628;2023-10-31T02:08:00;3.55;;;1.88;;
76204;SDS011;64986;55.672;37.628;2023-10-31T02:10:27;2.38;;;1.80;;
76204;SDS011;64986;55.672;37.628;2023-10-31T02:12:52;3.33;;;2.00;;
76204;SDS011;64986;55.672;37.628;2023-10-31T02:15:18;3.08;;;1.80;;
76204;SDS011;64986;55.672;37.628;2023-10-31T02:17:43;3.83;;;1.92;;
76204;SDS011;64986;55.672;37.628;2023-10-31T02:20:09;5.30;;;2.08;;
76204;SDS011;64986;55.672;37.628;2023-10-31T02:22:35;1.90;;;1.38;;
76204;SDS011;64986;55.672;37.628;2023-10-31T02:25:00;2.95;;;1.55;;
76204;SDS011;64986;55.672;37.628;2023-10-31T02:27:26;5.80;;;1.92;;
76204;SDS011;64986;55.672;37.628;2023-10-31T02:29:51;3.03;;;1.92;;
76204;SDS011;64986;55.672;37.628;2023-10-31T02:32:17;4.80;;;2.95;;
76204;SDS011;64986;55.672;37.628;2023-10-31T02:34:44;4.07;;;2.03;;
76204;SDS011;64986;55.672;37.628;2023-10-31T02:37:10;3.75;;;2.40;;
76204;SDS011;64986;55.672;37.628;2023-10-31T02:39:36;3.72;;;2.10;;
76204;SDS011;64986;55.672;37.628;2023-10-31T02:42:03;4.95;;;2.45;;
76204;SDS011;64986;55.672;37.628;2023-10-31T02:44:29;4.22;;;2.10;;
76204;SDS011;64986;55.672;37.628;2023-10-31T02:46:54;3.33;;;2.25;;
76204;SDS011;64986;55.672;37.628;2023-10-31T02:49:20;3.22;;;2.10;;
76204;SDS011;64986;55.672;37.628;2023-10-31T02:51:46;4.00;;;2.45;;
76204;SDS011;64986;55.672;37.628;2023-10-31T02:54:11;4.18;;;2.58;;
76204;SDS011;64986;55.672;37.628;2023-10-31T02:56:37;2.38;;;1.85;;
76204;SDS011;64986;55.672;37.628;2023-10-31T02:59:02;3.55;;;2.45;;
76204;SDS011;64986;55.672;37.628;2023-10-31T03:01:28;2.75;;;2.03;;
76204;SDS011;64986;55.672;37.628;2023-10-31T03:03:54;3.65;;;3.05;;
76204;SDS011;64986;55.672;37.628;2023-10-31T03:06:20;6.18;;;3.95;;
76204;SDS011;64986;55.672;37.628;2023-10-31T03:08:46;8.70;;;4.47;;
76204;SDS011;64986;55.672;37.628;2023-10-31T03:11:20;8.43;;;4.18;;
76204;SDS011;64986;55.672;37.628;2023-10-31T03:13:49;5.18;;;3.40;;
76204;SDS011;64986;55.672;37.628;2023-10-31T03:16:15;6.25;;;3.15;;
76204;SDS011;64986;55.672;37.628;2023-10-31T03:18:41;5.55;;;3.03;;
76204;SDS011;64986;55.672;37.628;2023-10-31T03:21:07;5.38;;;2.50;;
76204;SDS011;64986;55.672;37.628;2023-10-31T03:23:32;3.90;;;2.67;;
76204;SDS011;64986;55.672;37.628;2023-10-31T03:25:58;4.50;;;2.38;;
76204;SDS011;64986;55.672;37.628;2023-10-31T03:28:23;4.80;;;2.45;;
76204;SDS011;64986;55.672;37.628;2023-10-31T03:30:49;3.58;;;2.20;;
76204;SDS011;64986;55.672;37.628;2023-10-31T03:33:15;4.25;;;2.40;;
76204;SDS011;64986;55.672;37.628;2023-10-31T03:35:43;3.45;;;1.90;;
76204;SDS011;64986;55.672;37.628;2023-10-31T03:38:09;4.50;;;2.58;;
76204;SDS011;64986;55.672;37.628;2023-10-31T03:40:35;2.55;;;2.03;;
76204;SDS011;64986;55.672;37.628;2023-10-31T03:43:01;6.30;;;2.50;;
76204;SDS011;64986;55.672;37.628;2023-10-31T03:45:26;2.80;;;1.98;;
76204;SDS011;64986;55.672;37.628;2023-10-31T03:47:52;2.63;;;1.83;;
76204;SDS011;64986;55.672;37.628;2023-10-31T03:50:17;3.47;;;2.00;;
76204;SDS011;64986;55.672;37.628;2023-10-31T03:52:43;3.33;;;2.13;;
76204;SDS011;64986;55.672;37.628;2023-10-31T03:55:08;3.80;;;1.80;;
76204;SDS011;64986;55.672;37.628;2023-10-31T03:57:34;3.90;;;2.17;;
76204;SDS011;64986;55.672;37.628;2023-10-31T03:59:59;4.35;;;2.33;;
76204;SDS011;64986;55.672;37.628;2023-10-31T04:02:25;3.35;;;2.25;;
76204;SDS011;64986;55.672;37.628;2023-10-31T04:04:51;2.85;;;2.00;;
76204;SDS011;64986;55.672;37.628;2023-10-31T04:07:17;3.10;;;1.70;;
76204;SDS011;64986;55.672;37.628;2023-10-31T04:09:42;4.88;;;2.35;;
76204;SDS011;64986;55.672;37.628;2023-10-31T04:12:08;5.60;;;2.00;;
76204;SDS011;64986;55.672;37.628;2023-10-31T04:14:34;3.00;;;1.95;;
76204;SDS011;64986;55.672;37.628;2023-10-31T04:16:59;3.60;;;2.35;;
76204;SDS011;64986;55.672;37.628;2023-10-31T04:19:25;3.75;;;2.47;;
76204;SDS011;64986;55.672;37.628;2023-10-31T04:21:52;7.60;;;3.15;;
76204;SDS011;64986;55.672;37.628;2023-10-31T04:24:18;2.85;;;2.17;;
76204;SDS011;64986;55.672;37.628;2023-10-31T04:26:44;2.95;;;2.20;;
76204;SDS011;64986;55.672;37.628;2023-10-31T04:29:09;3.38;;;2.20;;
76204;SDS011;64986;55.672;37.628;2023-10-31T04:31:35;3.80;;;2.10;;
76204;SDS011;64986;55.672;37.628;2023-10-31T04:34:00;4.93;;;2.03;;
76204;SDS011;64986;55.672;37.628;2023-10-31T04:36:26;3.03;;;1.98;;
76204;SDS011;64986;55.672;37.628;2023-10-31T04:38:51;3.35;;;2.22;;
76204;SDS011;64986;55.672;37.628;2023-10-31T04:41:17;5.82;;;2.67;;
76204;SDS011;64986;55.672;37.628;2023-10-31T04:43:42;3.45;;;2.35;;
76204;SDS011;64986;55.672;37.628;2023-10-31T04:46:08;5.55;;;2.50;;
76204;SDS011;64986;55.672;37.628;2023-10-31T04:48:34;3.85;;;2.00;;
76204;SDS011;64986;55.672;37.628;2023-10-31T04:50:59;3.50;;;2.22;;
76204;SDS011;64986;55.672;37.628;2023-10-31T04:53:25;3.53;;;2.50;;
76204;SDS011;64986;55.672;37.628;2023-10-31T04:55:50;4.30;;;2.42;;
76204;SDS011;64986;55.672;37.628;2023-10-31T04:58:16;3.70;;;2.50;;
76204;SDS011;64986;55.672;37.628;2023-10-31T05:00:41;6.35;;;3.00;;
76204;SDS011;64986;55.672;37.628;2023-10-31T05:03:06;5.50;;;3.55;;
76204;SDS011;64986;55.672;37.628;2023-10-31T05:05:32;5.90;;;3.00;;
76204;SDS011;64986;55.672;37.628;2023-10-31T05:07:57;3.65;;;2.95;;
76204;SDS011;64986;55.672;37.628;2023-10-31T05:10:23;4.05;;;2.63;;
76204;SDS011;64986;55.672;37.628;2023-10-31T05:12:49;6.57;;;3.90;;
76204;SDS011;64986;55.672;37.628;2023-10-31T05:15:19;4.43;;;3.80;;
76204;SDS011;64986;55.672;37.628;2023-10-31T05:17:44;5.05;;;3.75;;
76204;SDS011;64986;55.672;37.628;2023-10-31T05:20:10;4.75;;;3.30;;
76204;SDS011;64986;55.672;37.628;2023-10-31T05:22:36;5.25;;;3.30;;
76204;SDS011;64986;55.672;37.628;2023-10-31T05:25:02;6.53;;;3.55;;
76204;SDS011;64986;55.672;37.628;2023-10-31T05:27:28;4.45;;;3.17;;
76204;SDS011;64986;55.672;37.628;2023-10-31T05:29:54;4.82;;;3.05;;
76204;SDS011;64986;55.672;37.628;2023-10-31T05:32:20;6.38;;;2.83;;
76204;SDS011;64986;55.672;37.628;2023-10-31T05:34:45;5.05;;;2.85;;
76204;SDS011;64986;55.672;37.628;2023-10-31T05:37:11;6.18;;;3.15;;
76204;SDS011;64986;55.672;37.628;2023-10-31T05:39:36;4.93;;;3.55;;
76204;SDS011;64986;55.672;37.628;2023-10-31T05:42:02;5.85;;;3.80;;
76204;SDS011;64986;55.672;37.628;2023-10-31T05:44:28;6.07;;;3.50;;
76204;SDS011;64986;55.672;37.628;2023-10-31T05:46:54;5.30;;;3.45;;
76204;SDS011;64986;55.672;37.628;2023-10-31T05:49:19;6.20;;;3.17;;
76204;SDS011;64986;55.672;37.628;2023-10-31T05:51:49;4.53;;;3.13;;
76204;SDS011;64986;55.672;37.628;2023-10-31T05:54:16;6.38;;;3.92;;
76204;SDS011;64986;55.672;37.628;2023-10-31T05:56:41;5.30;;;3.55;;
76204;SDS011;64986;55.672;37.628;2023-10-31T05:59:07;8.32;;;3.90;;
76204;SDS011;64986;55.672;37.628;2023-10-31T06:01:33;8.77;;;4.60;;
76204;SDS011;64986;55.672;37.628;2023-10-31T06:03:58;7.35;;;4.65;;
76204;SDS011;64986;55.672;37.628;2023-10-31T06:06:24;6.97;;;3.85;;
76204;SDS011;64986;55.672;37.628;2023-10-31T06:08:49;4.95;;;3.58;;
76204;SDS011;64986;55.672;37.628;2023-10-31T06:11:14;7.20;;;4.30;;
76204;SDS011;64986;55.672;37.628;2023-10-31T06:13:40;7.55;;;4.55;;
76204;SDS011;64986;55.672;37.628;2023-10-31T06:16:06;6.97;;;3.72;;
76204;SDS011;64986;55.672;37.628;2023-10-31T06:18:33;6.70;;;4.38;;
76204;SDS011;64986;55.672;37.628;2023-10-31T06:20:59;7.20;;;3.90;;
76204;SDS011;64986;55.672;37.628;2023-10-31T06:23:25;5.00;;;3.78;;
76204;SDS011;64986;55.672;37.628;2023-10-31T06:25:51;6.00;;;4.13;;
76204;SDS011;64986;55.672;37.628;2023-10-31T06:28:16;6.88;;;4.10;;
76204;SDS011;64986;55.672;37.628;2023-10-31T06:30:42;7.75;;;4.85;;
76204;SDS011;64986;55.672;37.628;2023-10-31T06:33:07;6.28;;;4.20;;
76204;SDS011;64986;55.672;37.628;2023-10-31T06:35:33;6.45;;;4.15;;
76204;SDS011;64986;55.672;37.628;2023-10-31T06:38:00;5.95;;;4.05;;
76204;SDS011;64986;55.672;37.628;2023-10-31T06:40:26;6.95;;;3.55;;
76204;SDS011;64986;55.672;37.628;2023-10-31T06:42:52;6.38;;;4.68;;
76204;SDS011;64986;55.672;37.628;2023-10-31T06:45:18;4.75;;;3.33;;
76204;SDS011;64986;55.672;37.628;2023-10-31T06:47:43;6.18;;;4.45;;
76204;SDS011;64986;55.672;37.628;2023-10-31T06:50:09;8.98;;;5.45;;
76204;SDS011;64986;55.672;37.628;2023-10-31T06:52:35;7.30;;;4.65;;
76204;SDS011;64986;55.672;37.628;2023-10-31T06:55:00;10.73;;;4.55;;
76204;SDS011;64986;55.672;37.628;2023-10-31T06:57:26;9.30;;;5.00;;
76204;SDS011;64986;55.672;37.628;2023-10-31T06:59:51;6.90;;;4.50;;
76204;SDS011;64986;55.672;37.628;2023-10-31T07:02:17;7.10;;;4.90;;
76204;SDS011;64986;55.672;37.628;2023-10-31T07:04:43;7.85;;;4.95;;
76204;SDS011;64986;55.672;37.628;2023-10-31T07:07:09;6.68;;;4.63;;
76204;SDS011;64986;55.672;37.628;2023-10-31T07:09:34;8.07;;;4.72;;
76204;SDS011;64986;55.672;37.628;2023-10-31T07:12:00;8.13;;;5.05;;
76204;SDS011;64986;55.672;37.628;2023-10-31T07:14:25;9.00;;;5.35;;
76204;SDS011;64986;55.672;37.628;2023-10-31T07:16:51;7.78;;;5.05;;
76204;SDS011;64986;55.672;37.628;2023-10-31T07:19:16;6.22;;;4.22;;
76204;SDS011;64986;55.672;37.628;2023-10-31T07:21:42;6.78;;;4.80;;
76204;SDS011;64986;55.672;37.628;2023-10-31T07:24:08;9.27;;;4.90;;
76204;SDS011;64986;55.672;37.628;2023-10-31T07:26:37;6.35;;;4.75;;
76204;SDS011;64986;55.672;37.628;2023-10-31T07:29:02;7.70;;;5.85;;
76204;SDS011;64986;55.672;37.628;2023-10-31T07:31:28;9.32;;;5.75;;
76204;SDS011;64986;55.672;37.628;2023-10-31T07:33:53;9.57;;;6.00;;
76204;SDS011;64986;55.672;37.628;2023-10-31T07:36:19;10.38;;;6.40;;
76204;SDS011;64986;55.672;37.628;2023-10-31T07:38:44;9.77;;;6.72;;
76204;SDS011;64986;55.672;37.628;2023-10-31T07:41:10;9.35;;;6.57;;
76204;SDS011;64986;55.672;37.628;2023-10-31T07:43:35;10.52;;;6.95;;
76204;SDS011;64986;55.672;37.628;2023-10-31T07:46:01;8.32;;;5.15;;
76204;SDS011;64986;55.672;37.628;2023-10-31T07:48:26;10.85;;;8.00;;
76204;SDS011;64986;55.672;37.628;2023-10-31T07:50:52;10.85;;;7.38;;
76204;SDS011;64986;55.672;37.628;2023-10-31T07:53:18;7.78;;;5.53;;
76204;SDS011;64986;55.672;37.628;2023-10-31T07:55:44;7.65;;;6.13;;
76204;SDS011;64986;55.672;37.628;2023-10-31T07:58:09;12.85;;;7.28;;
76204;SDS011;64986;55.672;37.628;2023-10-31T08:00:35;10.50;;;6.20;;
76204;SDS011;64986;55.672;37.628;2023-10-31T08:03:01;11.40;;;6.97;;
76204;SDS011;64986;55.672;37.628;2023-10-31T08:05:27;9.95;;;5.55;;
76204;SDS011;64986;55.672;37.628;2023-10-31T08:07:53;6.95;;;5.00;;
76204;SDS011;64986;55.672;37.628;2023-10-31T08:10:18;7.90;;;5.88;;
76204;SDS011;64986;55.672;37.628;2023-10-31T08:12:44;6.03;;;4.22;;
76204;SDS011;64986;55.672;37.628;2023-10-31T08:15:10;6.30;;;4.72;;
76204;SDS011;64986;55.672;37.628;2023-10-31T08:17:35;8.85;;;5.00;;
76204;SDS011;64986;55.672;37.628;2023-10-31T08:20:01;6.88;;;4.50;;
76204;SDS011;64986;55.672;37.628;2023-10-31T08:22:29;10.95;;;4.35;;
76204;SDS011;64986;55.672;37.628;2023-10-31T08:24:54;8.60;;;4.78;;
76204;SDS011;64986;55.672;37.628;2023-10-31T08:27:20;6.85;;;4.35;;
76204;SDS011;64986;55.672;37.628;2023-10-31T08:29:45;7.68;;;4.97;;
76204;SDS011;64986;55.672;37.628;2023-10-31T08:32:11;6.70;;;4.57;;
76204;SDS011;64986;55.672;37.628;2023-10-31T08:34:36;5.70;;;4.70;;
76204;SDS011;64986;55.672;37.628;2023-10-31T08:37:03;8.35;;;4.60;;
76204;SDS011;64986;55.672;37.628;2023-10-31T08:39:28;5.78;;;4.05;;
76204;SDS011;64986;55.672;37.628;2023-10-31T08:41:55;7.88;;;4.28;;
76204;SDS011;64986;55.672;37.628;2023-10-31T08:44:22;6.28;;;4.25;;
76204;SDS011;64986;55.672;37.628;2023-10-31T08:46:48;6.07;;;4.15;;
76204;SDS011;64986;55.672;37.628;2023-10-31T08:49:16;6.07;;;4.20;;
76204;SDS011;64986;55.672;37.628;2023-10-31T08:51:42;6.88;;;4.50;;
76204;SDS011;64986;55.672;37.628;2023-10-31T08:54:09;6.13;;;3.13;;
76204;SDS011;64986;55.672;37.628;2023-10-31T08:56:35;6.00;;;3.80;;
76204;SDS011;64986;55.672;37.628;2023-10-31T08:59:00;8.13;;;4.45;;
76204;SDS011;64986;55.672;37.628;2023-10-31T09:01:26;5.15;;;4.18;;
76204;SDS011;64986;55.672;37.628;2023-10-31T09:03:54;6.45;;;3.58;;
76204;SDS011;64986;55.672;37.628;2023-10-31T09:06:20;6.95;;;3.92;;
76204;SDS011;64986;55.672;37.628;2023-10-31T09:08:46;7.63;;;3.03;;
76204;SDS011;64986;55.672;37.628;2023-10-31T09:11:12;7.78;;;3.70;;
76204;SDS011;64986;55.672;37.628;2023-10-31T09:13:37;3.17;;;2.58;;
76204;SDS011;64986;55.672;37.628;2023-10-31T09:16:03;3.67;;;2.65;;
76204;SDS011;64986;55.672;37.628;2023-10-31T09:18:28;4.88;;;2.60;;
76204;SDS011;64986;55.672;37.628;2023-10-31T09:20:54;3.92;;;2.60;;
76204;SDS011;64986;55.672;37.628;2023-10-31T09:23:20;4.57;;;3.08;;
76204;SDS011;64986;55.672;37.628;2023-10-31T09:25:46;7.47;;;3.33;;
76204;SDS011;64986;55.672;37.628;2023-10-31T09:28:11;5.07;;;3.67;;
76204;SDS011;64986;55.672;37.628;2023-10-31T09:30:38;4.47;;;3.40;;
76204;SDS011;64986;55.672;37.628;2023-10-31T09:33:03;9.55;;;4.05;;
76204;SDS011;64986;55.672;37.628;2023-10-31T09:35:29;7.10;;;3.85;;
76204;SDS011;64986;55.672;37.628;2023-10-31T09:37:54;5.97;;;3.80;;
76204;SDS011;64986;55.672;37.628;2023-10-31T09:40:20;4.25;;;3.58;;
76204;SDS011;64986;55.672;37.628;2023-10-31T09:42:46;6.93;;;3.53;;
76204;SDS011;64986;55.672;37.628;2023-10-31T09:45:13;5.97;;;3.45;;
76204;SDS011;64986;55.672;37.628;2023-10-31T09:47:39;6.65;;;3.97;;
76204;SDS011;64986;55.672;37.628;2023-10-31T09:50:06;4.65;;;3.10;;
76204;SDS011;64986;55.672;37.628;2023-10-31T09:52:35;6.25;;;3.85;;
76204;SDS011;64986;55.672;37.628;2023-10-31T09:55:01;8.57;;;3.50;;
76204;SDS011;64986;55.672;37.628;2023-10-31T09:57:27;5.03;;;2.85;;
76204;SDS011;64986;55.672;37.628;2023-10-31T09:59:53;5.28;;;3.45;;
76204;SDS011;64986;55.672;37.628;2023-10-31T10:02:19;4.78;;;3.58;;
76204;SDS011;64986;55.672;37.628;2023-10-31T10:04:44;5.00;;;3.08;;
76204;SDS011;64986;55.672;37.628;2023-10-31T10:07:13;4.32;;;3.38;;
76204;SDS011;64986;55.672;37.628;2023-10-31T10:09:42;7.50;;;3.78;;
76204;SDS011;64986;55.672;37.628;2023-10-31T10:12:08;6.40;;;3.20;;
76204;SDS011;64986;55.672;37.628;2023-10-31T10:14:40;9.63;;;3.92;;
76204;SDS011;64986;55.672;37.628;2023-10-31T10:17:24;3.95;;;2.75;;
76204;SDS011;64986;55.672;37.628;2023-10-31T10:20:06;4.38;;;3.22;;
76204;SDS011;64986;55.672;37.628;2023-10-31T10:22:36;10.95;;;3.63;;
76204;SDS011;64986;55.672;37.628;2023-10-31T10:25:07;4.43;;;2.67;;
76204;SDS011;64986;55.672;37.628;2023-10-31T10:27:37;12.27;;;3.45;;
76204;SDS011;64986;55.672;37.628;2023-10-31T10:30:03;16.77;;;3.50;;
76204;SDS011;64986;55.672;37.628;2023-10-31T10:32:30;4.88;;;3.13;;
76204;SDS011;64986;55.672;37.628;2023-10-31T10:34:55;5.60;;;4.20;;
76204;SDS011;64986;55.672;37.628;2023-10-31T10:37:21;7.07;;;2.72;;
76204;SDS011;64986;55.672;37.628;2023-10-31T10:39:48;4.35;;;3.67;;
76204;SDS011;64986;55.672;37.628;2023-10-31T10:42:21;6.75;;;3.53;;
76204;SDS011;64986;55.672;37.628;2023-10-31T10:45:14;9.85;;;4.20;;
76204;SDS011;64986;55.672;37.628;2023-10-31T10:47:47;6.55;;;3.75;;
76204;SDS011;64986;55.672;37.628;2023-10-31T10:50:14;11.40;;;4.50;;
76204;SDS011;64986;55.672;37.628;2023-10-31T10:52:42;13.38;;;6.55;;
76204;SDS011;64986;55.672;37.628;2023-10-31T10:55:20;9.02;;;4.35;;
76204;SDS011;64986;55.672;37.628;2023-10-31T10:58:03;7.03;;;3.63;;
76204;SDS011;64986;55.672;37.628;2023-10-31T11:00:31;4.20;;;2.95;;
76204;SDS011;64986;55.672;37.628;2023-10-31T11:02:57;5.68;;;2.85;;
76204;SDS011;64986;55.672;37.628;2023-10-31T11:05:24;8.90;;;3.95;;
76204;SDS011;64986;55.672;37.628;2023-10-31T11:07:51;13.00;;;5.80;;
76204;SDS011;64986;55.672;37.628;2023-10-31T11:10:17;7.22;;;5.40;;
76204;SDS011;64986;55.672;37.628;2023-10-31T11:12:43;14.65;;;6.70;;
76204;SDS011;64986;55.672;37.628;2023-10-31T11:15:10;10.55;;;6.40;;
76204;SDS011;64986;55.672;37.628;2023-10-31T11:17:40;9.63;;;5.43;;
76204;SDS011;64986;55.672;37.628;2023-10-31T11:20:13;9.27;;;5.78;;
76204;SDS011;64986;55.672;37.628;2023-10-31T11:22:41;9.93;;;5.93;;
76204;SDS011;64986;55.672;37.628;2023-10-31T11:25:10;9.73;;;6.07;;
76204;SDS011;64986;55.672;37.628;2023-10-31T11:27:38;12.48;;;6.70;;
76204;SDS011;64986;55.672;37.628;2023-10-31T11:30:19;10.10;;;6.50;;
76204;SDS011;64986;55.672;37.628;2023-10-31T11:32:57;16.30;;;7.70;;
76204;SDS011;64986;55.672;37.628;2023-10-31T11:35:24;33.95;;;8.43;;
76204;SDS011;64986;55.672;37.628;2023-10-31T11:37:50;14.90;;;7.43;;
76204;SDS011;64986;55.672;37.628;2023-10-31T11:40:28;10.77;;;7.75;;
76204;SDS011;64986;55.672;37.628;2023-10-31T11:42:53;11.18;;;7.22;;
76204;SDS011;64986;55.672;37.628;2023-10-31T11:45:25;11.32;;;7.25;;
76204;SDS011;64986;55.672;37.628;2023-10-31T11:48:12;8.93;;;7.35;;
76204;SDS011;64986;55.672;37.628;2023-10-31T11:50:38;11.20;;;8.23;;
76204;SDS011;64986;55.672;37.628;2023-10-31T11:53:08;11.48;;;7.70;;
76204;SDS011;64986;55.672;37.628;2023-10-31T11:55:44;13.77;;;7.53;;
76204;SDS011;64986;55.672;37.628;2023-10-31T12:00:48;9.25;;;7.47;;
76204;SDS011;64986;55.672;37.628;2023-10-31T12:03:19;10.75;;;7.43;;
76204;SDS011;64986;55.672;37.628;2023-10-31T12:05:52;9.38;;;7.75;;
76204;SDS011;64986;55.672;37.628;2023-10-31T12:08:30;12.35;;;8.27;;
76204;SDS011;64986;55.672;37.628;2023-10-31T12:13:37;8.98;;;8.07;;
76204;SDS011;64986;55.672;37.628;2023-10-31T12:16:04;13.10;;;9.25;;
76204;SDS011;64986;55.672;37.628;2023-10-31T12:18:31;14.02;;;9.85;;
76204;SDS011;64986;55.672;37.628;2023-10-31T12:20:58;14.25;;;9.93;;
76204;SDS011;64986;55.672;37.628;2023-10-31T12:23:24;11.60;;;9.55;;
76204;SDS011;64986;55.672;37.628;2023-10-31T12:25:52;18.80;;;10.30;;
76204;SDS011;64986;55.672;37.628;2023-10-31T12:28:22;16.45;;;9.38;;
76204;SDS011;64986;55.672;37.628;2023-10-31T12:30:49;16.55;;;9.55;;
76204;SDS011;64986;55.672;37.628;2023-10-31T12:33:19;14.27;;;10.00;;
76204;SDS011;64986;55.672;37.628;2023-10-31T12:35:47;12.73;;;9.40;;
76204;SDS011;64986;55.672;37.628;2023-10-31T12:38:13;15.85;;;9.43;;
76204;SDS011;64986;55.672;37.628;2023-10-31T12:40:40;14.73;;;8.95;;
76204;SDS011;64986;55.672;37.628;2023-10-31T12:43:07;15.55;;;11.30;;
76204;SDS011;64986;55.672;37.628;2023-10-31T12:45:35;14.95;;;11.10;;
76204;SDS011;64986;55.672;37.628;2023-10-31T12:48:04;17.25;;;11.60;;
76204;SDS011;64986;55.672;37.628;2023-10-31T12:50:32;13.48;;;9.90;;
76204;SDS011;64986;55.672;37.628;2023-10-31T12:52:58;13.55;;;9.57;;
76204;SDS011;64986;55.672;37.628;2023-10-31T12:55:27;15.70;;;9.98;;
76204;SDS011;64986;55.672;37.628;2023-10-31T12:57:56;13.85;;;9.50;;
76204;SDS011;64986;55.672;37.628;2023-10-31T13:00:29;12.75;;;8.77;;
76204;SDS011;64986;55.672;37.628;2023-10-31T13:03:06;9.52;;;8.27;;
76204;SDS011;64986;55.672;37.628;2023-10-31T13:05:34;13.52;;;8.45;;
76204;SDS011;64986;55.672;37.628;2023-10-31T13:08:01;14.98;;;9.68;;
76204;SDS011;64986;55.672;37.628;2023-10-31T13:10:29;11.77;;;9.50;;
76204;SDS011;64986;55.672;37.628;2023-10-31T13:12:56;18.80;;;9.77;;
76204;SDS011;64986;55.672;37.628;2023-10-31T13:15:22;13.38;;;9.13;;
76204;SDS011;64986;55.672;37.628;2023-10-31T13:17:49;10.50;;;8.80;;
76204;SDS011;64986;55.672;37.628;2023-10-31T13:20:17;15.02;;;8.27;;
76204;SDS011;64986;55.672;37.628;2023-10-31T13:22:44;17.77;;;10.00;;
76204;SDS011;64986;55.672;37.628;2023-10-31T13:25:10;13.30;;;10.32;;
76204;SDS011;64986;55.672;37.628;2023-10-31T13:27:38;11.02;;;9.65;;
76204;SDS011;64986;55.672;37.628;2023-10-31T13:30:08;12.23;;;8.90;;
76204;SDS011;64986;55.672;37.628;2023-10-31T13:32:39;12.07;;;9.85;;
76204;SDS011;64986;55.672;37.628;2023-10-31T13:35:05;12.90;;;10.02;;
76204;SDS011;64986;55.672;37.628;2023-10-31T13:37:34;14.13;;;10.18;;
76204;SDS011;64986;55.672;37.628;2023-10-31T13:40:01;12.27;;;9.40;;
76204;SDS011;64986;55.672;37.628;2023-10-31T13:42:27;13.80;;;9.90;;
76204;SDS011;64986;55.672;37.628;2023-10-31T13:44:53;13.18;;;8.18;;
76204;SDS011;64986;55.672;37.628;2023-10-31T13:47:19;15.20;;;11.15;;
76204;SDS011;64986;55.672;37.628;2023-10-31T13:49:44;11.80;;;9.88;;
76204;SDS011;64986;55.672;37.628;2023-10-31T13:52:10;13.98;;;9.98;;
76204;SDS011;64986;55.672;37.628;2023-10-31T13:54:35;14.05;;;10.82;;
76204;SDS011;64986;55.672;37.628;2023-10-31T13:57:01;16.23;;;10.52;;
76204;SDS011;64986;55.672;37.628;2023-10-31T13:59:27;13.05;;;10.30;;
76204;SDS011;64986;55.672;37.628;2023-10-31T14:01:53;12.15;;;8.52;;
76204;SDS011;64986;55.672;37.628;2023-10-31T14:04:18;20.05;;;12.20;;
76204;SDS011;64986;55.672;37.628;2023-10-31T14:06:44;16.83;;;11.75;;
76204;SDS011;64986;55.672;37.628;2023-10-31T14:09:11;14.30;;;11.30;;
76204;SDS011;64986;55.672;37.628;2023-10-31T14:11:37;12.35;;;9.10;;
76204;SDS011;64986;55.672;37.628;2023-10-31T14:14:04;16.52;;;11.60;;
76204;SDS011;64986;55.672;37.628;2023-10-31T14:16:35;21.05;;;12.23;;
76204;SDS011;64986;55.672;37.628;2023-10-31T14:19:02;17.88;;;11.13;;
76204;SDS011;64986;55.672;37.628;2023-10-31T14:21:28;19.08;;;12.10;;
76204;SDS011;64986;55.672;37.628;2023-10-31T14:23:54;18.50;;;11.27;;
76204;SDS011;64986;55.672;37.628;2023-10-31T14:26:20;19.73;;;13.85;;
76204;SDS011;64986;55.672;37.628;2023-10-31T14:28:46;14.00;;;10.75;;
76204;SDS011;64986;55.672;37.628;2023-10-31T14:31:12;13.88;;;9.43;;
76204;SDS011;64986;55.672;37.628;2023-10-31T14:33:39;16.88;;;11.48;;